Terminal Aerodrome Forecast
Issued by NWS

Home | Current Version | Previous Version | Text Only | Print | Product List | Glossary On
Versions: 1 2 3 4 5 6 7 8 9 10 11 12 13 14 15
574
FTUS44 KLUB 060520
TAFCDS
TAF
KCDS 060520Z 0606/0706 14007KT P6SM FEW250
     FM061700 16015G25KT P6SM SCT250=

USA.gov is the U.S. government's official web portal to all federal, state and local government web resources and services.